sim
Sign-in with your pilot id or email,
or register
Callsign
Passwort

Schedule Details

Flight Number: OEO7666
Departure: Munich Airport (EDDM) at 08:50
Arrival: Montreal Pierre Elliott Trudeau Airport (CYUL) at 17:45

Weather Information
Getting current METAR information for EDDM 240950Z 24007KT 9999 FEW025 18/14 Q1011 NOSIG
Getting current METAR information for CYUL 241000Z 22006KT 15SM FEW250 13/11 A2983 RMK CI1 CI TR SLP102

Schedule Frequency

Route Map